sensor_id;sensor_type;location;lat;lon;timestamp;temperature;humidity
8402;DHT22;4238;48.404;9.498;2022-08-30T00:02:04;14.20;99.90
8402;DHT22;4238;48.404;9.498;2022-08-30T00:04:31;14.20;99.90
8402;DHT22;4238;48.404;9.498;2022-08-30T00:06:59;14.20;99.90
8402;DHT22;4238;48.404;9.498;2022-08-30T00:09:28;14.10;99.90
8402;DHT22;4238;48.404;9.498;2022-08-30T00:11:58;14.00;99.90
8402;DHT22;4238;48.404;9.498;2022-08-30T00:14:25;13.90;99.90
8402;DHT22;4238;48.404;9.498;2022-08-30T00:16:52;13.80;99.90
8402;DHT22;4238;48.404;9.498;2022-08-30T00:19:19;13.90;99.90
8402;DHT22;4238;48.404;9.498;2022-08-30T00:21:46;14.00;99.90
8402;DHT22;4238;48.404;9.498;2022-08-30T00:24:13;13.90;99.90
8402;DHT22;4238;48.404;9.498;2022-08-30T00:26:40;13.90;99.90
8402;DHT22;4238;48.404;9.498;2022-08-30T00:29:08;13.80;99.90
8402;DHT22;4238;48.404;9.498;2022-08-30T00:31:35;13.80;99.90
8402;DHT22;4238;48.404;9.498;2022-08-30T00:34:02;13.80;99.90
8402;DHT22;4238;48.404;9.498;2022-08-30T00:36:29;13.80;99.90
8402;DHT22;4238;48.404;9.498;2022-08-30T00:38:56;13.80;99.90
8402;DHT22;4238;48.404;9.498;2022-08-30T00:41:23;13.80;99.90
8402;DHT22;4238;48.404;9.498;2022-08-30T00:43:50;13.90;99.90
8402;DHT22;4238;48.404;9.498;2022-08-30T00:46:19;13.80;99.90
8402;DHT22;4238;48.404;9.498;2022-08-30T00:48:48;13.80;99.90
8402;DHT22;4238;48.404;9.498;2022-08-30T00:51:16;13.80;99.90
8402;DHT22;4238;48.404;9.498;2022-08-30T00:53:48;13.70;99.90
8402;DHT22;4238;48.404;9.498;2022-08-30T00:56:17;13.80;99.90
8402;DHT22;4238;48.404;9.498;2022-08-30T00:58:46;13.70;99.90
8402;DHT22;4238;48.404;9.498;2022-08-30T01:01:15;13.60;99.90
8402;DHT22;4238;48.404;9.498;2022-08-30T01:03:43;13.60;99.90
8402;DHT22;4238;48.404;9.498;2022-08-30T01:06:11;13.60;99.90
8402;DHT22;4238;48.404;9.498;2022-08-30T01:08:40;13.60;99.90
8402;DHT22;4238;48.404;9.498;2022-08-30T01:11:07;13.60;99.90
8402;DHT22;4238;48.404;9.498;2022-08-30T01:13:34;13.50;99.90
8402;DHT22;4238;48.404;9.498;2022-08-30T01:16:02;13.50;99.90
8402;DHT22;4238;48.404;9.498;2022-08-30T01:18:29;13.50;99.90
8402;DHT22;4238;48.404;9.498;2022-08-30T01:21:04;13.40;99.90
8402;DHT22;4238;48.404;9.498;2022-08-30T01:23:39;13.50;99.90
8402;DHT22;4238;48.404;9.498;2022-08-30T01:26:08;13.40;99.90
8402;DHT22;4238;48.404;9.498;2022-08-30T01:28:38;13.40;99.90
8402;DHT22;4238;48.404;9.498;2022-08-30T01:31:05;13.40;99.90
8402;DHT22;4238;48.404;9.498;2022-08-30T01:33:35;13.30;99.90
8402;DHT22;4238;48.404;9.498;2022-08-30T01:36:05;13.30;99.90
8402;DHT22;4238;48.404;9.498;2022-08-30T01:38:39;13.30;99.90
8402;DHT22;4238;48.404;9.498;2022-08-30T01:41:09;13.30;99.90
8402;DHT22;4238;48.404;9.498;2022-08-30T01:43:37;13.20;99.90
8402;DHT22;4238;48.404;9.498;2022-08-30T01:46:04;13.10;99.90
8402;DHT22;4238;48.404;9.498;2022-08-30T01:48:31;13.10;99.90
8402;DHT22;4238;48.404;9.498;2022-08-30T01:50:59;13.10;99.90
8402;DHT22;4238;48.404;9.498;2022-08-30T01:53:25;13.10;99.90
8402;DHT22;4238;48.404;9.498;2022-08-30T01:55:54;13.20;99.90
8402;DHT22;4238;48.404;9.498;2022-08-30T01:58:21;13.20;99.90
8402;DHT22;4238;48.404;9.498;2022-08-30T02:00:48;13.20;99.90
8402;DHT22;4238;48.404;9.498;2022-08-30T02:03:15;13.10;99.90
8402;DHT22;4238;48.404;9.498;2022-08-30T02:05:43;13.00;99.90
8402;DHT22;4238;48.404;9.498;2022-08-30T02:08:10;13.10;99.90
8402;DHT22;4238;48.404;9.498;2022-08-30T02:10:37;13.10;99.90
8402;DHT22;4238;48.404;9.498;2022-08-30T02:13:05;13.00;99.90
8402;DHT22;4238;48.404;9.498;2022-08-30T02:15:32;13.10;99.90
8402;DHT22;4238;48.404;9.498;2022-08-30T02:18:00;13.10;99.90
8402;DHT22;4238;48.404;9.498;2022-08-30T02:20:27;13.00;99.90
8402;DHT22;4238;48.404;9.498;2022-08-30T02:22:54;12.90;99.90
8402;DHT22;4238;48.404;9.498;2022-08-30T02:25:21;12.90;99.90
8402;DHT22;4238;48.404;9.498;2022-08-30T02:27:48;12.90;99.90
8402;DHT22;4238;48.404;9.498;2022-08-30T02:30:16;12.80;99.90
8402;DHT22;4238;48.404;9.498;2022-08-30T02:32:43;12.80;99.90
8402;DHT22;4238;48.404;9.498;2022-08-30T02:35:10;12.90;99.90
8402;DHT22;4238;48.404;9.498;2022-08-30T02:37:37;12.90;99.90
8402;DHT22;4238;48.404;9.498;2022-08-30T02:40:05;13.00;99.90
8402;DHT22;4238;48.404;9.498;2022-08-30T02:42:32;12.90;99.90
8402;DHT22;4238;48.404;9.498;2022-08-30T02:44:59;12.90;99.90
8402;DHT22;4238;48.404;9.498;2022-08-30T02:47:27;12.80;99.90
8402;DHT22;4238;48.404;9.498;2022-08-30T02:49:54;12.80;99.90
8402;DHT22;4238;48.404;9.498;2022-08-30T02:52:21;12.80;99.90
8402;DHT22;4238;48.404;9.498;2022-08-30T02:54:48;12.90;99.90
8402;DHT22;4238;48.404;9.498;2022-08-30T02:57:15;12.90;99.90
8402;DHT22;4238;48.404;9.498;2022-08-30T02:59:42;12.90;99.90
8402;DHT22;4238;48.404;9.498;2022-08-30T03:02:10;12.90;99.90
8402;DHT22;4238;48.404;9.498;2022-08-30T03:04:39;13.10;99.90
8402;DHT22;4238;48.404;9.498;2022-08-30T03:07:06;13.20;99.90
8402;DHT22;4238;48.404;9.498;2022-08-30T03:12:09;13.10;99.90
8402;DHT22;4238;48.404;9.498;2022-08-30T03:14:37;13.20;99.90
8402;DHT22;4238;48.404;9.498;2022-08-30T03:17:07;13.10;99.90
8402;DHT22;4238;48.404;9.498;2022-08-30T03:19:35;13.10;99.90
8402;DHT22;4238;48.404;9.498;2022-08-30T03:22:05;13.00;99.90
8402;DHT22;4238;48.404;9.498;2022-08-30T03:24:32;12.90;99.90
8402;DHT22;4238;48.404;9.498;2022-08-30T03:26:59;12.80;99.90
8402;DHT22;4238;48.404;9.498;2022-08-30T03:29:26;12.80;99.90
8402;DHT22;4238;48.404;9.498;2022-08-30T03:31:54;12.80;99.90
8402;DHT22;4238;48.404;9.498;2022-08-30T03:34:22;12.80;99.90
8402;DHT22;4238;48.404;9.498;2022-08-30T03:36:50;12.80;99.90
8402;DHT22;4238;48.404;9.498;2022-08-30T03:39:19;12.70;99.90
8402;DHT22;4238;48.404;9.498;2022-08-30T03:41:47;12.70;99.90
8402;DHT22;4238;48.404;9.498;2022-08-30T03:44:14;12.70;99.90
8402;DHT22;4238;48.404;9.498;2022-08-30T03:46:41;12.70;99.90
8402;DHT22;4238;48.404;9.498;2022-08-30T03:49:08;12.70;99.90
8402;DHT22;4238;48.404;9.498;2022-08-30T03:51:35;12.60;99.90
8402;DHT22;4238;48.404;9.498;2022-08-30T03:54:02;12.70;99.90
8402;DHT22;4238;48.404;9.498;2022-08-30T03:56:30;12.80;99.90
8402;DHT22;4238;48.404;9.498;2022-08-30T03:58:57;12.80;99.90
8402;DHT22;4238;48.404;9.498;2022-08-30T04:01:24;12.80;99.90
8402;DHT22;4238;48.404;9.498;2022-08-30T04:03:51;12.80;99.90
8402;DHT22;4238;48.404;9.498;2022-08-30T04:06:18;12.80;99.90
8402;DHT22;4238;48.404;9.498;2022-08-30T04:08:45;12.80;99.90
8402;DHT22;4238;48.404;9.498;2022-08-30T04:11:12;12.80;99.90
8402;DHT22;4238;48.404;9.498;2022-08-30T04:13:42;12.90;99.90
8402;DHT22;4238;48.404;9.498;2022-08-30T04:16:09;12.90;99.90
8402;DHT22;4238;48.404;9.498;2022-08-30T04:18:36;12.90;99.90
8402;DHT22;4238;48.404;9.498;2022-08-30T04:21:04;12.90;99.90
8402;DHT22;4238;48.404;9.498;2022-08-30T04:23:32;12.80;99.90
8402;DHT22;4238;48.404;9.498;2022-08-30T04:25:59;12.80;99.90
8402;DHT22;4238;48.404;9.498;2022-08-30T04:28:25;12.80;99.90
8402;DHT22;4238;48.404;9.498;2022-08-30T04:30:54;12.80;99.90
8402;DHT22;4238;48.404;9.498;2022-08-30T04:33:21;12.70;99.90
8402;DHT22;4238;48.404;9.498;2022-08-30T04:35:49;12.80;99.90
8402;DHT22;4238;48.404;9.498;2022-08-30T04:38:17;12.70;99.90
8402;DHT22;4238;48.404;9.498;2022-08-30T04:40:45;12.70;99.90
8402;DHT22;4238;48.404;9.498;2022-08-30T04:43:13;12.70;99.90
8402;DHT22;4238;48.404;9.498;2022-08-30T04:45:41;12.60;99.90
8402;DHT22;4238;48.404;9.498;2022-08-30T04:48:09;12.60;99.90
8402;DHT22;4238;48.404;9.498;2022-08-30T04:50:36;12.70;99.90
8402;DHT22;4238;48.404;9.498;2022-08-30T04:53:03;12.70;99.90
8402;DHT22;4238;48.404;9.498;2022-08-30T04:55:31;12.70;99.90
8402;DHT22;4238;48.404;9.498;2022-08-30T04:57:58;12.70;99.90
8402;DHT22;4238;48.404;9.498;2022-08-30T05:00:25;12.70;99.90
8402;DHT22;4238;48.404;9.498;2022-08-30T05:02:52;12.70;99.90
8402;DHT22;4238;48.404;9.498;2022-08-30T05:05:20;12.70;99.90
8402;DHT22;4238;48.404;9.498;2022-08-30T05:08:06;12.70;99.90
8402;DHT22;4238;48.404;9.498;2022-08-30T05:10:36;12.80;99.90
8402;DHT22;4238;48.404;9.498;2022-08-30T05:13:03;12.80;99.90
8402;DHT22;4238;48.404;9.498;2022-08-30T05:15:31;12.80;99.90
8402;DHT22;4238;48.404;9.498;2022-08-30T05:17:58;12.90;99.90
8402;DHT22;4238;48.404;9.498;2022-08-30T05:20:26;13.00;99.90
8402;DHT22;4238;48.404;9.498;2022-08-30T05:22:53;13.00;99.90
8402;DHT22;4238;48.404;9.498;2022-08-30T05:25:22;13.10;99.90
8402;DHT22;4238;48.404;9.498;2022-08-30T05:27:49;13.20;99.90
8402;DHT22;4238;48.404;9.498;2022-08-30T05:30:17;13.30;99.90
8402;DHT22;4238;48.404;9.498;2022-08-30T05:32:44;13.60;99.90
8402;DHT22;4238;48.404;9.498;2022-08-30T05:35:14;13.70;99.90
8402;DHT22;4238;48.404;9.498;2022-08-30T05:37:42;13.70;99.90
8402;DHT22;4238;48.404;9.498;2022-08-30T05:40:10;13.80;99.90
8402;DHT22;4238;48.404;9.498;2022-08-30T05:42:38;13.90;99.90
8402;DHT22;4238;48.404;9.498;2022-08-30T05:45:07;14.10;99.90
8402;DHT22;4238;48.404;9.498;2022-08-30T05:47:34;14.30;99.90
8402;DHT22;4238;48.404;9.498;2022-08-30T05:50:02;14.50;99.90
8402;DHT22;4238;48.404;9.498;2022-08-30T05:52:29;14.70;99.90
8402;DHT22;4238;48.404;9.498;2022-08-30T05:54:57;14.80;99.90
8402;DHT22;4238;48.404;9.498;2022-08-30T05:57:25;15.00;99.90
8402;DHT22;4238;48.404;9.498;2022-08-30T05:59:52;15.20;99.90
8402;DHT22;4238;48.404;9.498;2022-08-30T06:02:19;15.40;99.90
8402;DHT22;4238;48.404;9.498;2022-08-30T06:04:46;15.50;99.90
8402;DHT22;4238;48.404;9.498;2022-08-30T06:07:12;15.60;99.90
8402;DHT22;4238;48.404;9.498;2022-08-30T06:09:39;15.80;99.90
8402;DHT22;4238;48.404;9.498;2022-08-30T06:12:08;15.90;99.90
8402;DHT22;4238;48.404;9.498;2022-08-30T06:14:35;16.10;99.90
8402;DHT22;4238;48.404;9.498;2022-08-30T06:17:04;16.20;99.90
8402;DHT22;4238;48.404;9.498;2022-08-30T06:19:31;16.50;99.90
8402;DHT22;4238;48.404;9.498;2022-08-30T06:21:58;16.70;99.90
8402;DHT22;4238;48.404;9.498;2022-08-30T06:24:26;16.90;99.90
8402;DHT22;4238;48.404;9.498;2022-08-30T06:26:53;17.20;99.90
8402;DHT22;4238;48.404;9.498;2022-08-30T06:29:21;17.50;99.90
8402;DHT22;4238;48.404;9.498;2022-08-30T06:31:48;17.70;99.90
8402;DHT22;4238;48.404;9.498;2022-08-30T06:34:16;18.00;98.60
8402;DHT22;4238;48.404;9.498;2022-08-30T06:36:43;18.20;94.70
8402;DHT22;4238;48.404;9.498;2022-08-30T06:39:10;18.40;93.70
8402;DHT22;4238;48.404;9.498;2022-08-30T06:41:38;18.60;80.00
8402;DHT22;4238;48.404;9.498;2022-08-30T06:44:06;18.80;72.10
8402;DHT22;4238;48.404;9.498;2022-08-30T06:46:36;19.10;82.10
8402;DHT22;4238;48.404;9.498;2022-08-30T06:49:05;19.40;69.50
8402;DHT22;4238;48.404;9.498;2022-08-30T06:51:34;19.70;54.00
8402;DHT22;4238;48.404;9.498;2022-08-30T06:54:03;19.90;48.60
8402;DHT22;4238;48.404;9.498;2022-08-30T06:56:31;20.10;31.50
8402;DHT22;4238;48.404;9.498;2022-08-30T06:58:58;20.30;42.00
8402;DHT22;4238;48.404;9.498;2022-08-30T07:01:27;20.40;34.70
8402;DHT22;4238;48.404;9.498;2022-08-30T07:03:55;20.70;21.60
8402;DHT22;4238;48.404;9.498;2022-08-30T07:06:23;21.00;10.70
8402;DHT22;4238;48.404;9.498;2022-08-30T07:08:51;21.10;5.60
8402;DHT22;4238;48.404;9.498;2022-08-30T07:11:25;21.40;1.00
8402;DHT22;4238;48.404;9.498;2022-08-30T07:13:53;21.70;1.00
8402;DHT22;4238;48.404;9.498;2022-08-30T07:16:20;21.70;1.00
8402;DHT22;4238;48.404;9.498;2022-08-30T07:18:47;22.00;1.00
8402;DHT22;4238;48.404;9.498;2022-08-30T07:21:19;22.00;1.00
8402;DHT22;4238;48.404;9.498;2022-08-30T07:23:47;22.40;1.00
8402;DHT22;4238;48.404;9.498;2022-08-30T07:26:16;22.60;1.00
8402;DHT22;4238;48.404;9.498;2022-08-30T07:28:45;22.90;71.80
8402;DHT22;4238;48.404;9.498;2022-08-30T07:31:15;22.90;99.90
8402;DHT22;4238;48.404;9.498;2022-08-30T07:33:42;22.90;99.90
8402;DHT22;4238;48.404;9.498;2022-08-30T07:36:10;23.20;99.90
8402;DHT22;4238;48.404;9.498;2022-08-30T07:38:38;23.20;99.90
8402;DHT22;4238;48.404;9.498;2022-08-30T07:41:05;23.20;99.90
8402;DHT22;4238;48.404;9.498;2022-08-30T07:43:34;23.40;98.00
8402;DHT22;4238;48.404;9.498;2022-08-30T07:46:02;23.40;99.90
8402;DHT22;4238;48.404;9.498;2022-08-30T07:48:29;23.70;1.00
8402;DHT22;4238;48.404;9.498;2022-08-30T07:50:56;24.00;91.10
8402;DHT22;4238;48.404;9.498;2022-08-30T07:53:23;24.10;99.90
8402;DHT22;4238;48.404;9.498;2022-08-30T07:55:53;23.70;1.00
8402;DHT22;4238;48.404;9.498;2022-08-30T07:58:20;23.80;79.00
8402;DHT22;4238;48.404;9.498;2022-08-30T08:00:46;23.70;1.00
8402;DHT22;4238;48.404;9.498;2022-08-30T08:03:13;23.80;9.10
8402;DHT22;4238;48.404;9.498;2022-08-30T08:05:43;23.80;2.90
8402;DHT22;4238;48.404;9.498;2022-08-30T08:08:12;23.90;62.60
8402;DHT22;4238;48.404;9.498;2022-08-30T08:10:40;24.10;1.00
8402;DHT22;4238;48.404;9.498;2022-08-30T08:13:08;24.10;99.90
8402;DHT22;4238;48.404;9.498;2022-08-30T08:15:36;24.10;1.00
8402;DHT22;4238;48.404;9.498;2022-08-30T08:18:03;24.20;1.00
8402;DHT22;4238;48.404;9.498;2022-08-30T08:20:31;24.20;1.00
8402;DHT22;4238;48.404;9.498;2022-08-30T08:22:58;24.40;1.00
8402;DHT22;4238;48.404;9.498;2022-08-30T08:25:25;24.40;99.90
8402;DHT22;4238;48.404;9.498;2022-08-30T08:27:52;24.50;99.90
8402;DHT22;4238;48.404;9.498;2022-08-30T08:30:21;24.70;64.00
8402;DHT22;4238;48.404;9.498;2022-08-30T08:32:50;24.40;1.00
8402;DHT22;4238;48.404;9.498;2022-08-30T08:35:17;24.50;1.00
8402;DHT22;4238;48.404;9.498;2022-08-30T08:37:44;24.00;1.00
8402;DHT22;4238;48.404;9.498;2022-08-30T08:40:14;24.30;1.00
8402;DHT22;4238;48.404;9.498;2022-08-30T08:43:02;24.40;1.00
8402;DHT22;4238;48.404;9.498;2022-08-30T08:45:47;24.50;99.90
8402;DHT22;4238;48.404;9.498;2022-08-30T08:48:26;24.70;99.90
8402;DHT22;4238;48.404;9.498;2022-08-30T08:50:54;24.70;99.90
8402;DHT22;4238;48.404;9.498;2022-08-30T08:53:39;24.90;99.90
8402;DHT22;4238;48.404;9.498;2022-08-30T08:56:11;24.40;99.90
8402;DHT22;4238;48.404;9.498;2022-08-30T08:58:43;24.80;99.90
8402;DHT22;4238;48.404;9.498;2022-08-30T09:01:14;25.10;99.90
8402;DHT22;4238;48.404;9.498;2022-08-30T09:03:42;25.50;99.90
8402;DHT22;4238;48.404;9.498;2022-08-30T09:06:25;25.80;99.90
8402;DHT22;4238;48.404;9.498;2022-08-30T09:08:53;25.60;93.70
8402;DHT22;4238;48.404;9.498;2022-08-30T09:11:23;25.70;35.50
8402;DHT22;4238;48.404;9.498;2022-08-30T09:13:51;25.90;1.00
8402;DHT22;4238;48.404;9.498;2022-08-30T09:19:39;26.00;1.00
8402;DHT22;4238;48.404;9.498;2022-08-30T09:22:21;25.80;1.00
8402;DHT22;4238;48.404;9.498;2022-08-30T09:24:53;25.90;1.00
8402;DHT22;4238;48.404;9.498;2022-08-30T09:27:30;26.00;1.00
8402;DHT22;4238;48.404;9.498;2022-08-30T09:30:00;26.20;1.00
8402;DHT22;4238;48.404;9.498;2022-08-30T09:32:36;26.30;1.00
8402;DHT22;4238;48.404;9.498;2022-08-30T09:35:09;26.40;1.00
8402;DHT22;4238;48.404;9.498;2022-08-30T09:37:43;26.70;1.00
8402;DHT22;4238;48.404;9.498;2022-08-30T09:40:15;26.90;1.00
8402;DHT22;4238;48.404;9.498;2022-08-30T09:42:58;27.10;1.00
8402;DHT22;4238;48.404;9.498;2022-08-30T09:45:30;27.30;1.00
8402;DHT22;4238;48.404;9.498;2022-08-30T09:47:57;27.30;1.00
8402;DHT22;4238;48.404;9.498;2022-08-30T09:50:26;26.80;1.00
8402;DHT22;4238;48.404;9.498;2022-08-30T09:53:01;26.40;1.00
8402;DHT22;4238;48.404;9.498;2022-08-30T09:56:00;26.10;1.00
8402;DHT22;4238;48.404;9.498;2022-08-30T09:58:40;26.60;1.00
8402;DHT22;4238;48.404;9.498;2022-08-30T10:01:13;27.00;1.00
8402;DHT22;4238;48.404;9.498;2022-08-30T10:03:48;27.00;1.00
8402;DHT22;4238;48.404;9.498;2022-08-30T10:06:27;27.00;1.00
8402;DHT22;4238;48.404;9.498;2022-08-30T10:09:05;27.20;1.00
8402;DHT22;4238;48.404;9.498;2022-08-30T10:11:42;27.30;1.00
8402;DHT22;4238;48.404;9.498;2022-08-30T10:14:54;27.30;1.00
8402;DHT22;4238;48.404;9.498;2022-08-30T10:17:36;27.40;1.00
8402;DHT22;4238;48.404;9.498;2022-08-30T10:20:15;27.60;1.00
8402;DHT22;4238;48.404;9.498;2022-08-30T10:22:47;27.60;1.00
8402;DHT22;4238;48.404;9.498;2022-08-30T10:25:17;27.90;1.00
8402;DHT22;4238;48.404;9.498;2022-08-30T10:27:48;27.80;99.90
8402;DHT22;4238;48.404;9.498;2022-08-30T10:30:18;28.10;99.90
8402;DHT22;4238;48.404;9.498;2022-08-30T10:32:48;27.90;99.90
8402;DHT22;4238;48.404;9.498;2022-08-30T10:35:20;27.40;99.90
8402;DHT22;4238;48.404;9.498;2022-08-30T10:37:51;27.80;99.90
8402;DHT22;4238;48.404;9.498;2022-08-30T10:40:23;27.70;99.90
8402;DHT22;4238;48.404;9.498;2022-08-30T10:43:15;28.30;99.90
8402;DHT22;4238;48.404;9.498;2022-08-30T10:45:46;28.40;99.90
8402;DHT22;4238;48.404;9.498;2022-08-30T10:48:17;28.10;99.90
8402;DHT22;4238;48.404;9.498;2022-08-30T10:50:49;27.80;99.90
8402;DHT22;4238;48.404;9.498;2022-08-30T10:53:27;27.80;99.90
8402;DHT22;4238;48.404;9.498;2022-08-30T10:55:59;27.70;99.90
8402;DHT22;4238;48.404;9.498;2022-08-30T10:58:27;27.60;99.90
8402;DHT22;4238;48.404;9.498;2022-08-30T11:01:10;27.70;99.90
8402;DHT22;4238;48.404;9.498;2022-08-30T11:04:18;27.80;99.90
8402;DHT22;4238;48.404;9.498;2022-08-30T11:06:58;27.50;99.90
8402;DHT22;4238;48.404;9.498;2022-08-30T11:09:40;27.60;99.90
8402;DHT22;4238;48.404;9.498;2022-08-30T11:12:21;27.60;99.90
8402;DHT22;4238;48.404;9.498;2022-08-30T11:14:51;27.40;99.90
8402;DHT22;4238;48.404;9.498;2022-08-30T11:17:25;27.30;99.90
8402;DHT22;4238;48.404;9.498;2022-08-30T11:19:54;27.00;99.90
8402;DHT22;4238;48.404;9.498;2022-08-30T11:22:24;27.10;99.90
8402;DHT22;4238;48.404;9.498;2022-08-30T11:25:04;26.90;99.90
8402;DHT22;4238;48.404;9.498;2022-08-30T11:27:43;26.60;99.90
8402;DHT22;4238;48.404;9.498;2022-08-30T11:30:50;26.70;99.90
8402;DHT22;4238;48.404;9.498;2022-08-30T11:33:29;26.60;99.90
8402;DHT22;4238;48.404;9.498;2022-08-30T11:35:57;26.60;99.90
8402;DHT22;4238;48.404;9.498;2022-08-30T11:38:58;26.40;99.90
8402;DHT22;4238;48.404;9.498;2022-08-30T11:41:35;26.60;99.90
8402;DHT22;4238;48.404;9.498;2022-08-30T11:44:26;26.50;99.90
8402;DHT22;4238;48.404;9.498;2022-08-30T11:46:55;26.50;99.90
8402;DHT22;4238;48.404;9.498;2022-08-30T11:49:44;26.30;99.90
8402;DHT22;4238;48.404;9.498;2022-08-30T11:52:30;26.60;99.90
8402;DHT22;4238;48.404;9.498;2022-08-30T11:55:16;26.60;99.90
8402;DHT22;4238;48.404;9.498;2022-08-30T11:57:50;26.90;99.90
8402;DHT22;4238;48.404;9.498;2022-08-30T12:00:29;26.90;99.90
8402;DHT22;4238;48.404;9.498;2022-08-30T12:03:00;27.00;99.90
8402;DHT22;4238;48.404;9.498;2022-08-30T12:05:51;26.90;99.90
8402;DHT22;4238;48.404;9.498;2022-08-30T12:08:47;26.80;99.90
8402;DHT22;4238;48.404;9.498;2022-08-30T12:14:51;26.80;1.00
8402;DHT22;4238;48.404;9.498;2022-08-30T12:17:47;26.80;1.00
8402;DHT22;4238;48.404;9.498;2022-08-30T12:20:40;26.90;1.00
8402;DHT22;4238;48.404;9.498;2022-08-30T12:23:18;27.10;1.00
8402;DHT22;4238;48.404;9.498;2022-08-30T12:25:46;27.10;1.00
8402;DHT22;4238;48.404;9.498;2022-08-30T12:28:19;27.20;1.00
8402;DHT22;4238;48.404;9.498;2022-08-30T12:30:48;27.40;1.00
8402;DHT22;4238;48.404;9.498;2022-08-30T12:33:24;27.70;1.00
8402;DHT22;4238;48.404;9.498;2022-08-30T12:35:51;28.00;1.00
8402;DHT22;4238;48.404;9.498;2022-08-30T12:38:20;27.70;99.90
8402;DHT22;4238;48.404;9.498;2022-08-30T12:40:52;27.80;99.90
8402;DHT22;4238;48.404;9.498;2022-08-30T12:43:29;27.70;1.00
8402;DHT22;4238;48.404;9.498;2022-08-30T12:46:00;28.00;1.00
8402;DHT22;4238;48.404;9.498;2022-08-30T12:48:33;27.90;99.90
8402;DHT22;4238;48.404;9.498;2022-08-30T12:51:02;28.10;99.90
8402;DHT22;4238;48.404;9.498;2022-08-30T12:53:33;28.10;99.90
8402;DHT22;4238;48.404;9.498;2022-08-30T12:56:04;27.30;99.90
8402;DHT22;4238;48.404;9.498;2022-08-30T12:58:36;27.10;1.00
8402;DHT22;4238;48.404;9.498;2022-08-30T13:01:16;27.00;99.90
8402;DHT22;4238;48.404;9.498;2022-08-30T13:03:58;26.70;99.90
8402;DHT22;4238;48.404;9.498;2022-08-30T13:06:42;26.50;99.90
8402;DHT22;4238;48.404;9.498;2022-08-30T13:09:26;26.70;1.00
8402;DHT22;4238;48.404;9.498;2022-08-30T13:11:55;27.10;1.00
8402;DHT22;4238;48.404;9.498;2022-08-30T13:14:30;27.10;1.00
8402;DHT22;4238;48.404;9.498;2022-08-30T13:17:08;27.30;1.00
8402;DHT22;4238;48.404;9.498;2022-08-30T13:19:37;27.10;1.00
8402;DHT22;4238;48.404;9.498;2022-08-30T13:22:11;26.60;1.00
8402;DHT22;4238;48.404;9.498;2022-08-30T13:24:49;26.50;1.00
8402;DHT22;4238;48.404;9.498;2022-08-30T13:27:16;26.80;1.00
8402;DHT22;4238;48.404;9.498;2022-08-30T13:29:43;26.60;1.00
8402;DHT22;4238;48.404;9.498;2022-08-30T13:32:12;26.70;1.00
8402;DHT22;4238;48.404;9.498;2022-08-30T13:34:39;26.70;1.00
8402;DHT22;4238;48.404;9.498;2022-08-30T13:37:07;27.00;1.00
8402;DHT22;4238;48.404;9.498;2022-08-30T13:39:36;26.70;1.00
8402;DHT22;4238;48.404;9.498;2022-08-30T13:42:03;26.60;1.00
8402;DHT22;4238;48.404;9.498;2022-08-30T13:44:30;26.60;1.00
8402;DHT22;4238;48.404;9.498;2022-08-30T13:46:57;26.40;1.00
8402;DHT22;4238;48.404;9.498;2022-08-30T13:49:29;26.00;1.00
8402;DHT22;4238;48.404;9.498;2022-08-30T13:51:56;25.70;1.00
8402;DHT22;4238;48.404;9.498;2022-08-30T13:54:23;25.60;1.00
8402;DHT22;4238;48.404;9.498;2022-08-30T13:56:52;25.60;1.00
8402;DHT22;4238;48.404;9.498;2022-08-30T13:59:20;25.50;1.00
8402;DHT22;4238;48.404;9.498;2022-08-30T14:01:48;25.60;1.00
8402;DHT22;4238;48.404;9.498;2022-08-30T14:04:16;25.90;1.00
8402;DHT22;4238;48.404;9.498;2022-08-30T14:06:44;26.20;1.00
8402;DHT22;4238;48.404;9.498;2022-08-30T14:09:11;26.20;1.00
8402;DHT22;4238;48.404;9.498;2022-08-30T14:11:39;26.30;1.00
8402;DHT22;4238;48.404;9.498;2022-08-30T14:14:07;26.30;1.00
8402;DHT22;4238;48.404;9.498;2022-08-30T14:16:36;26.30;1.00
8402;DHT22;4238;48.404;9.498;2022-08-30T14:19:03;26.30;1.00
8402;DHT22;4238;48.404;9.498;2022-08-30T14:21:31;26.30;1.00
8402;DHT22;4238;48.404;9.498;2022-08-30T14:23:59;26.20;1.00
8402;DHT22;4238;48.404;9.498;2022-08-30T14:26:27;26.30;1.00
8402;DHT22;4238;48.404;9.498;2022-08-30T14:28:55;26.40;1.00
8402;DHT22;4238;48.404;9.498;2022-08-30T14:31:22;26.20;1.00
8402;DHT22;4238;48.404;9.498;2022-08-30T14:33:49;25.80;1.00
8402;DHT22;4238;48.404;9.498;2022-08-30T14:36:17;25.90;1.00
8402;DHT22;4238;48.404;9.498;2022-08-30T14:38:44;25.70;1.00
8402;DHT22;4238;48.404;9.498;2022-08-30T14:41:12;25.80;1.00
8402;DHT22;4238;48.404;9.498;2022-08-30T14:43:40;25.80;1.00
8402;DHT22;4238;48.404;9.498;2022-08-30T14:46:07;25.60;1.00
8402;DHT22;4238;48.404;9.498;2022-08-30T14:48:35;25.60;1.00
8402;DHT22;4238;48.404;9.498;2022-08-30T14:51:02;25.50;1.00
8402;DHT22;4238;48.404;9.498;2022-08-30T14:53:29;25.50;1.00
8402;DHT22;4238;48.404;9.498;2022-08-30T14:55:56;25.50;1.00
8402;DHT22;4238;48.404;9.498;2022-08-30T14:58:24;25.60;1.00
8402;DHT22;4238;48.404;9.498;2022-08-30T15:00:52;25.80;1.00
8402;DHT22;4238;48.404;9.498;2022-08-30T15:03:19;25.80;1.00
8402;DHT22;4238;48.404;9.498;2022-08-30T15:05:49;25.70;1.00
8402;DHT22;4238;48.404;9.498;2022-08-30T15:08:16;25.50;1.00
8402;DHT22;4238;48.404;9.498;2022-08-30T15:10:44;25.60;1.00
8402;DHT22;4238;48.404;9.498;2022-08-30T15:13:12;25.50;1.00
8402;DHT22;4238;48.404;9.498;2022-08-30T15:15:42;25.30;1.00
8402;DHT22;4238;48.404;9.498;2022-08-30T15:18:09;25.30;1.00
8402;DHT22;4238;48.404;9.498;2022-08-30T15:20:38;25.30;1.00
8402;DHT22;4238;48.404;9.498;2022-08-30T15:23:09;25.20;1.00
8402;DHT22;4238;48.404;9.498;2022-08-30T15:25:36;25.30;1.00
8402;DHT22;4238;48.404;9.498;2022-08-30T15:28:03;25.20;1.00
8402;DHT22;4238;48.404;9.498;2022-08-30T15:30:30;25.10;1.00
8402;DHT22;4238;48.404;9.498;2022-08-30T15:32:58;25.10;1.00
8402;DHT22;4238;48.404;9.498;2022-08-30T15:35:25;25.00;1.00
8402;DHT22;4238;48.404;9.498;2022-08-30T15:37:52;24.80;1.00
8402;DHT22;4238;48.404;9.498;2022-08-30T15:40:19;24.80;1.00
8402;DHT22;4238;48.404;9.498;2022-08-30T15:42:46;24.80;1.00
8402;DHT22;4238;48.404;9.498;2022-08-30T15:45:13;24.80;1.00
8402;DHT22;4238;48.404;9.498;2022-08-30T15:47:40;24.80;1.00
8402;DHT22;4238;48.404;9.498;2022-08-30T15:50:09;24.90;1.00
8402;DHT22;4238;48.404;9.498;2022-08-30T15:52:35;24.90;1.00
8402;DHT22;4238;48.404;9.498;2022-08-30T15:55:03;24.90;1.00
8402;DHT22;4238;48.404;9.498;2022-08-30T15:57:31;25.00;1.00
8402;DHT22;4238;48.404;9.498;2022-08-30T15:59:58;25.30;1.00
8402;DHT22;4238;48.404;9.498;2022-08-30T16:02:25;25.60;1.00
8402;DHT22;4238;48.404;9.498;2022-08-30T16:04:52;25.60;1.00
8402;DHT22;4238;48.404;9.498;2022-08-30T16:07:20;25.60;1.00
8402;DHT22;4238;48.404;9.498;2022-08-30T16:09:47;25.60;1.00
8402;DHT22;4238;48.404;9.498;2022-08-30T16:12:14;25.60;1.00
8402;DHT22;4238;48.404;9.498;2022-08-30T16:14:41;25.60;1.00
8402;DHT22;4238;48.404;9.498;2022-08-30T16:17:08;25.70;1.00
8402;DHT22;4238;48.404;9.498;2022-08-30T16:19:36;25.40;1.00
8402;DHT22;4238;48.404;9.498;2022-08-30T16:22:03;25.40;1.00
8402;DHT22;4238;48.404;9.498;2022-08-30T16:24:31;25.20;1.00
8402;DHT22;4238;48.404;9.498;2022-08-30T16:26:58;24.90;1.00
8402;DHT22;4238;48.404;9.498;2022-08-30T16:29:25;24.80;1.00
8402;DHT22;4238;48.404;9.498;2022-08-30T16:31:52;24.80;1.00
8402;DHT22;4238;48.404;9.498;2022-08-30T16:34:20;24.80;1.00
8402;DHT22;4238;48.404;9.498;2022-08-30T16:36:47;24.60;1.00